This is the latest recevied weather packets stored in our database for station/object HS6PNA-1. If no packets are shown the sender has not sent any weather packets the latest 1 day(s).
| Time | Temp. | Humidity | Pressure | Rain* | Wind** | Luminosity | Snow |
|---|---|---|---|---|---|---|---|
| 1778081545 | 34.44° C | 53% | 1003 hPa | - | - | 0 W/m² | - |
| 1778078767 | 35° C | 54% | 1003 hPa | - | - | 0 W/m² | - |
| 1778077842 | 35° C | 53% | 1002 hPa | - | - | 0 W/m² | - |
| 1778074144 | 35.56° C | 51% | 1002 hPa | - | - | 0 W/m² | - |
| 1778072295 | 35.56° C | 50% | 1001 hPa | - | - | 0 W/m² | - |
| 1778070491 | 35.56° C | 51% | 1001 hPa | - | - | 0 W/m² | - |
| 1778067716 | 36.67° C | 47% | 1001 hPa | - | - | 0 W/m² | - |
| 1778066792 | 36.67° C | 46% | 1000 hPa | - | - | 3 W/m² | - |
| 1778065866 | 37.22° C | 44% | 1000 hPa | - | - | 8 W/m² | - |
| 1778064017 | 37.78° C | 41% | 1000 hPa | - | - | 33 W/m² | - |
| 1778063092 | 37.78° C | 41% | 1000 hPa | - | - | 53 W/m² | - |
| 1778060319 | 38.89° C | 39% | 1000 hPa | - | - | 112 W/m² | - |
| 1778059394 | 38.89° C | 39% | 1000 hPa | - | - | 134 W/m² | - |
| 1778058470 | 38.33° C | 39% | 1000 hPa | - | - | 198 W/m² | - |
| 1778057545 | 38.89° C | 39% | 1000 hPa | - | - | 263 W/m² | - |
| 1778055696 | 38.89° C | 37% | 1001 hPa | - | - | 244 W/m² | - |
| 1778054771 | 38.89° C | 40% | 1001 hPa | - | - | 315 W/m² | - |
| 1778053847 | 40° C | 37% | 1001 hPa | - | - | 312 W/m² | - |
| 1778052922 | 41.11° C | 32% | 1001 hPa | - | - | 318 W/m² | - |
| 1778051073 | 41.11° C | 35% | 1001 hPa | - | - | 418 W/m² | - |
| 1778050149 | 41.67° C | 34% | 1002 hPa | - | - | 431 W/m² | - |
| 1778049224 | 41.11° C | 36% | 1002 hPa | - | - | 431 W/m² | - |
| 1778048299 | 40.56° C | 37% | 1002 hPa | - | - | 385 W/m² | - |
| 1778047375 | 39.44° C | 37% | 1003 hPa | - | - | 311 W/m² | - |
| 1778046450 | 40.56° C | 37% | 1003 hPa | - | - | 269 W/m² | - |
* Rain since midnight (hover to see other rain measurements)
** Current wind speed in m/s (hover to see current wind gust speed)